METAR Data
IDs: Format: Raw Decoded Include TAF

Data at: 1640 UTC 03 Dec 2021

KDLS 031553Z AUTO 28004KT 10SM CLR 04/01 A3028 RMK AO2 SLP255 T00390011